createdAt,value
2019-02-18T00:01:24.769Z,50.90
2019-02-18T00:03:57.967Z,51.39
2019-02-18T00:06:30.538Z,51.19
2019-02-18T00:09:04.357Z,51.59
2019-02-18T00:11:39.999Z,51.84
2019-02-18T00:14:13.143Z,51.78
2019-02-18T00:16:46.919Z,51.74
2019-02-18T00:19:20.578Z,52.36
2019-02-18T00:21:53.701Z,52.33
2019-02-18T00:24:26.675Z,51.55
2019-02-18T00:26:59.811Z,50.69
2019-02-18T00:29:33.190Z,50.91
2019-02-18T00:32:06.670Z,51.19
2019-02-18T00:34:40.451Z,51.36
2019-02-18T00:37:13.510Z,51.40
2019-02-18T00:39:46.950Z,51.26
2019-02-18T00:42:19.644Z,51.15
2019-02-18T00:44:53.509Z,51.08
2019-02-18T00:47:26.432Z,51.40
2019-02-18T00:49:59.057Z,51.40
2019-02-18T00:52:32.001Z,51.04
2019-02-18T00:55:05.591Z,51.01
2019-02-18T00:57:38.662Z,51.43
2019-02-18T01:00:12.152Z,51.54
2019-02-18T01:02:45.259Z,51.11
2019-02-18T01:05:19.249Z,51.36
2019-02-18T01:07:52.400Z,51.36
2019-02-18T01:10:25.464Z,51.62
2019-02-18T01:12:58.889Z,51.96
2019-02-18T01:15:32.774Z,52.07
2019-02-18T01:18:05.501Z,52.32
2019-02-18T01:20:38.870Z,52.25
2019-02-18T01:23:12.661Z,52.39
2019-02-18T01:25:45.731Z,52.46
2019-02-18T01:28:19.437Z,52.58
2019-02-18T01:30:52.954Z,53.22
2019-02-18T01:33:26.750Z,53.31
2019-02-18T01:35:59.788Z,53.75
2019-02-18T01:38:32.715Z,53.77
2019-02-18T01:41:06.561Z,53.85
2019-02-18T01:43:40.317Z,53.73
2019-02-18T01:46:13.772Z,53.85
2019-02-18T01:48:46.651Z,54.22
2019-02-18T01:51:20.423Z,54.39
2019-02-18T01:53:53.827Z,54.44
2019-02-18T01:56:27.818Z,54.71
2019-02-18T01:59:01.228Z,55.00
2019-02-18T02:01:35.146Z,55.04
2019-02-18T02:04:08.861Z,54.91
2019-02-18T02:06:41.822Z,54.45
2019-02-18T02:09:15.430Z,54.14
2019-02-18T02:11:48.695Z,54.19
2019-02-18T02:14:22.045Z,54.42
2019-02-18T02:16:55.855Z,54.71
2019-02-18T02:19:29.339Z,55.09
2019-02-18T02:22:02.915Z,55.01
2019-02-18T02:24:35.932Z,54.97
2019-02-18T02:27:09.228Z,54.90
2019-02-18T02:29:42.570Z,55.22
2019-02-18T02:32:14.895Z,54.76
2019-02-18T02:34:47.663Z,54.74
2019-02-18T02:37:20.952Z,54.69
2019-02-18T02:39:54.025Z,54.98
2019-02-18T02:42:27.324Z,55.17
2019-02-18T02:45:01.094Z,55.24
2019-02-18T02:47:34.958Z,55.50
2019-02-18T02:50:07.867Z,55.12
2019-02-18T02:52:41.589Z,54.80
2019-02-18T02:55:15.162Z,54.80
2019-02-18T02:57:48.138Z,55.11
2019-02-18T03:00:21.421Z,54.83
2019-02-18T03:02:54.520Z,54.90
2019-02-18T03:05:28.220Z,54.54
2019-02-18T03:08:01.353Z,54.95
2019-02-18T03:10:34.391Z,53.75
2019-02-18T03:13:07.390Z,53.46
2019-02-18T03:15:40.270Z,53.20
2019-02-18T03:18:13.667Z,54.01
2019-02-18T03:20:46.993Z,53.85
2019-02-18T03:23:20.635Z,53.89
2019-02-18T03:25:54.190Z,52.92
2019-02-18T03:29:30.353Z,52.95
2019-02-18T03:32:04.176Z,52.35
2019-02-18T03:34:42.345Z,51.82
2019-02-18T03:37:15.268Z,51.71
2019-02-18T03:39:48.112Z,51.86
2019-02-18T03:42:21.124Z,51.85
2019-02-18T03:44:54.501Z,52.14
2019-02-18T03:47:27.841Z,52.83
2019-02-18T03:50:00.957Z,53.04
2019-02-18T03:52:35.070Z,53.73
2019-02-18T03:55:08.520Z,53.96
2019-02-18T03:57:41.496Z,54.08
2019-02-18T04:00:14.210Z,54.76
2019-02-18T04:02:48.564Z,55.75
2019-02-18T04:05:22.330Z,56.87
2019-02-18T04:07:54.510Z,56.67
2019-02-18T04:10:27.060Z,57.99
2019-02-18T04:13:00.586Z,58.71
2019-02-18T04:15:34.046Z,58.76
2019-02-18T04:18:07.653Z,59.66
2019-02-18T04:20:41.026Z,60.98
2019-02-18T04:23:15.001Z,62.35
2019-02-18T04:25:49.381Z,63.54
2019-02-18T04:28:23.824Z,65.01
2019-02-18T04:30:57.301Z,66.00
2019-02-18T04:33:31.105Z,66.84
2019-02-18T04:36:04.419Z,66.92
2019-02-18T04:38:37.589Z,66.98
2019-02-18T04:41:10.901Z,66.26
2019-02-18T04:43:45.601Z,65.57
2019-02-18T04:46:18.216Z,67.99
2019-02-18T04:48:51.589Z,67.37
2019-02-18T04:51:24.330Z,69.77
2019-02-18T04:53:58.105Z,71.33
2019-02-18T04:56:31.798Z,71.66
2019-02-18T04:59:04.520Z,72.24
2019-02-18T05:01:37.135Z,71.19
2019-02-18T05:04:10.023Z,70.77
2019-02-18T05:06:43.036Z,69.64
2019-02-18T05:09:16.759Z,69.25
2019-02-18T05:11:49.469Z,69.44
2019-02-18T05:14:22.882Z,69.54
2019-02-18T05:16:56.580Z,69.50
2019-02-18T05:19:30.193Z,69.95
2019-02-18T05:22:03.358Z,69.69
2019-02-18T05:24:37.158Z,70.46
2019-02-18T05:27:10.499Z,70.42
2019-02-18T05:29:43.213Z,70.82
2019-02-18T05:32:16.403Z,70.11
2019-02-18T05:34:49.350Z,68.83
2019-02-18T05:37:22.754Z,68.23
2019-02-18T05:39:56.088Z,68.67
2019-02-18T05:42:30.255Z,67.51
2019-02-18T05:45:05.849Z,66.72
2019-02-18T05:47:38.829Z,65.42
2019-02-18T05:50:12.411Z,64.59
2019-02-18T05:52:47.140Z,65.58
2019-02-18T05:55:20.560Z,66.78
2019-02-18T05:57:53.167Z,66.87
2019-02-18T06:00:26.913Z,68.26
2019-02-18T06:03:00.723Z,69.68
2019-02-18T06:05:34.629Z,70.86
2019-02-18T06:08:07.778Z,70.09
2019-02-18T06:10:43.591Z,69.96
2019-02-18T06:13:16.191Z,70.29
2019-02-18T06:15:49.132Z,70.21
2019-02-18T06:18:22.413Z,69.51
2019-02-18T06:20:55.419Z,68.50
2019-02-18T06:23:28.919Z,68.11
2019-02-18T06:26:01.934Z,68.06
2019-02-18T06:28:35.419Z,67.86
2019-02-18T06:31:09.205Z,69.36
2019-02-18T06:33:42.825Z,71.33
2019-02-18T06:36:15.810Z,72.71
2019-02-18T06:38:49.306Z,74.11
2019-02-18T06:41:23.785Z,74.90
2019-02-18T06:43:57.120Z,76.12
2019-02-18T06:46:33.178Z,76.82
2019-02-18T06:49:09.813Z,77.44
2019-02-18T06:51:42.745Z,78.30
2019-02-18T06:54:15.817Z,78.74
2019-02-18T06:57:17.687Z,78.52
2019-02-18T07:00:02.076Z,78.63
2019-02-18T07:02:52.380Z,77.36
2019-02-18T07:06:03.028Z,76.54
2019-02-18T07:08:56.223Z,74.89
2019-02-18T07:11:39.898Z,73.96
2019-02-18T07:14:13.713Z,73.52
2019-02-18T07:16:47.773Z,74.54
2019-02-18T07:19:21.488Z,74.38
2019-02-18T07:21:54.535Z,73.63
2019-02-18T07:24:27.917Z,74.40
2019-02-18T07:27:01.510Z,75.79
2019-02-18T07:29:36.039Z,76.38
2019-02-18T07:32:09.468Z,76.64
2019-02-18T07:34:42.956Z,77.43
2019-02-18T07:37:16.435Z,77.57
2019-02-18T07:39:49.984Z,77.78
2019-02-18T07:42:22.577Z,77.99
2019-02-18T07:44:55.638Z,77.95
2019-02-18T07:47:29.121Z,77.38
2019-02-18T07:50:01.773Z,76.73
2019-02-18T07:52:35.606Z,76.63
2019-02-18T07:55:08.695Z,76.65
2019-02-18T07:57:41.375Z,76.25
2019-02-18T08:00:15.092Z,76.02
2019-02-18T08:02:48.849Z,76.06
2019-02-18T08:05:21.386Z,75.58
2019-02-18T08:07:54.817Z,76.14
2019-02-18T08:10:27.846Z,75.93
2019-02-18T08:13:01.268Z,75.67
2019-02-18T08:15:34.782Z,75.99
2019-02-18T08:18:08.105Z,75.71
2019-02-18T08:20:41.128Z,75.88
2019-02-18T08:23:15.063Z,75.68
2019-02-18T08:25:49.055Z,75.02
2019-02-18T08:28:22.165Z,75.86
2019-02-18T08:30:55.943Z,74.50
2019-02-18T08:33:29.335Z,74.76
2019-02-18T08:36:02.834Z,74.72
2019-02-18T08:38:36.839Z,74.42
2019-02-18T08:41:09.835Z,73.19
2019-02-18T08:43:43.505Z,72.05
2019-02-18T08:46:16.625Z,71.21
2019-02-18T08:48:50.141Z,70.34
2019-02-18T08:51:23.396Z,70.00
2019-02-18T08:53:57.042Z,70.22
2019-02-18T08:56:30.353Z,70.21
2019-02-18T08:59:03.510Z,69.45
2019-02-18T09:01:37.114Z,67.88
2019-02-18T09:04:10.330Z,65.12
2019-02-18T09:06:43.840Z,65.46
2019-02-18T09:09:16.628Z,67.34
2019-02-18T09:11:50.618Z,66.58
2019-02-18T09:14:23.930Z,64.35
2019-02-18T09:16:58.700Z,63.59
2019-02-18T09:19:31.645Z,62.38
2019-02-18T09:22:23.122Z,62.20
2019-02-18T09:25:02.270Z,63.75
2019-02-18T09:27:35.453Z,59.68
2019-02-18T09:30:08.329Z,61.31
2019-02-18T09:32:41.421Z,58.13
2019-02-18T09:35:14.911Z,55.22
2019-02-18T09:37:48.202Z,53.11
2019-02-18T09:40:21.507Z,50.68
2019-02-18T09:42:55.132Z,48.79
2019-02-18T09:45:28.321Z,47.15
2019-02-18T09:48:00.903Z,47.96
2019-02-18T09:50:34.286Z,45.41
2019-02-18T09:53:07.681Z,45.93
2019-02-18T09:55:41.050Z,45.90
2019-02-18T09:58:14.871Z,46.57
2019-02-18T10:00:47.641Z,46.95
2019-02-18T10:03:31.039Z,45.40
2019-02-18T10:05:56.095Z,45.94
2019-02-18T10:08:29.200Z,46.44
2019-02-18T10:11:02.668Z,45.31
2019-02-18T10:13:36.559Z,45.44
2019-02-18T10:16:09.991Z,45.21
2019-02-18T10:18:43.911Z,44.13
2019-02-18T10:21:16.938Z,42.25
2019-02-18T10:23:50.337Z,43.14
2019-02-18T10:26:23.360Z,42.81
2019-02-18T10:28:57.091Z,43.79
2019-02-18T10:31:30.573Z,44.70
2019-02-18T10:34:03.853Z,43.34
2019-02-18T10:36:37.648Z,42.61
2019-02-18T10:39:11.901Z,40.91
2019-02-18T10:41:45.312Z,41.69
2019-02-18T10:44:18.281Z,39.89
2019-02-18T10:46:52.077Z,40.29
2019-02-18T10:49:25.622Z,37.87
2019-02-18T10:51:59.382Z,37.21
2019-02-18T10:54:32.982Z,37.04
2019-02-18T10:57:05.889Z,37.07
2019-02-18T10:59:39.294Z,36.39
2019-02-18T11:02:12.710Z,35.71
2019-02-18T11:04:46.323Z,34.67
2019-02-18T11:07:19.270Z,35.51
2019-02-18T11:09:52.481Z,34.99
2019-02-18T11:12:25.002Z,33.13
2019-02-18T11:14:58.458Z,31.59
2019-02-18T11:17:38.693Z,30.32
2019-02-18T11:20:07.305Z,33.07
2019-02-18T11:22:40.676Z,33.07
2019-02-18T11:25:13.396Z,30.54
2019-02-18T11:27:46.800Z,30.10
2019-02-18T11:30:19.946Z,30.83
2019-02-18T11:32:53.755Z,27.83
2019-02-18T11:35:26.952Z,28.14
2019-02-18T11:38:00.324Z,31.15
2019-02-18T11:40:33.490Z,31.15
2019-02-18T11:43:06.868Z,31.71
2019-02-18T11:45:40.427Z,28.93
2019-02-18T11:48:13.834Z,29.79
2019-02-18T11:50:47.014Z,29.79
2019-02-18T11:53:20.084Z,27.95
2019-02-18T11:55:53.803Z,31.45
2019-02-18T11:58:27.038Z,30.43
2019-02-18T12:01:00.088Z,32.82
2019-02-18T12:03:33.374Z,32.82
2019-02-18T12:06:06.589Z,32.87
2019-02-18T12:08:39.661Z,32.87
2019-02-18T12:11:13.481Z,30.60
2019-02-18T12:13:46.969Z,30.60
2019-02-18T12:16:20.549Z,31.97
2019-02-18T12:18:53.968Z,30.42
2019-02-18T12:21:27.097Z,30.42
2019-02-18T12:24:00.311Z,29.41
2019-02-18T12:26:33.746Z,30.54
2019-02-18T12:29:07.480Z,32.27
2019-02-18T12:31:40.921Z,32.27
2019-02-18T12:34:14.521Z,33.05
2019-02-18T12:36:47.570Z,33.05
2019-02-18T12:39:22.629Z,33.65
2019-02-18T12:41:55.367Z,32.68
2019-02-18T12:44:29.754Z,33.50
2019-02-18T12:47:05.429Z,30.73
2019-02-18T12:49:39.230Z,30.73
2019-02-18T12:52:12.432Z,28.75
2019-02-18T12:54:45.256Z,28.75
2019-02-18T12:57:18.403Z,28.48
2019-02-18T12:59:51.734Z,27.75
2019-02-18T13:02:25.292Z,28.01
2019-02-18T13:04:58.387Z,29.02
2019-02-18T13:07:31.378Z,25.49
2019-02-18T13:10:06.156Z,26.54
2019-02-18T13:12:38.565Z,25.88
2019-02-18T13:15:12.229Z,25.28
2019-02-18T13:17:45.329Z,26.35
2019-02-18T13:20:19.096Z,25.42
2019-02-18T13:22:53.624Z,25.42
2019-02-18T13:25:27.483Z,26.37
2019-02-18T13:28:08.299Z,27.22
2019-02-18T13:30:36.188Z,27.22
2019-02-18T13:33:09.432Z,27.22
2019-02-18T13:35:43.579Z,27.52
2019-02-18T13:38:17.559Z,26.74
2019-02-18T13:40:50.156Z,27.05
2019-02-18T13:43:23.966Z,28.72
2019-02-18T13:45:58.509Z,27.30
2019-02-18T13:48:46.423Z,27.54
2019-02-18T13:51:24.325Z,27.37
2019-02-18T13:53:55.080Z,28.77
2019-02-18T13:56:28.615Z,28.33
2019-02-18T13:59:01.759Z,28.71
2019-02-18T14:01:34.347Z,28.32
2019-02-18T14:04:07.329Z,27.38
2019-02-18T14:06:40.100Z,28.35
2019-02-18T14:09:13.602Z,30.53
2019-02-18T14:11:46.392Z,29.88
2019-02-18T14:14:19.878Z,28.17
2019-02-18T14:16:53.292Z,29.44
2019-02-18T14:19:26.378Z,29.51
2019-02-18T14:21:59.764Z,29.74
2019-02-18T14:24:33.277Z,29.91
2019-02-18T14:27:06.657Z,29.64
2019-02-18T14:29:40.553Z,29.22
2019-02-18T14:32:14.025Z,29.04
2019-02-18T14:34:49.284Z,29.61
2019-02-18T14:37:22.724Z,29.76
2019-02-18T14:39:56.207Z,30.79
2019-02-18T14:42:30.412Z,30.13
2019-02-18T14:45:03.726Z,31.96
2019-02-18T14:47:37.244Z,30.49
2019-02-18T14:50:11.308Z,30.64
2019-02-18T14:52:45.135Z,31.10
2019-02-18T14:55:18.588Z,31.75
2019-02-18T14:57:52.335Z,31.22
2019-02-18T15:00:25.162Z,31.11
2019-02-18T15:02:57.395Z,31.23
2019-02-18T15:05:31.801Z,32.20
2019-02-18T15:08:05.303Z,32.00
2019-02-18T15:10:38.434Z,31.17
2019-02-18T15:13:12.303Z,31.65
2019-02-18T15:15:45.743Z,31.33
2019-02-18T15:18:19.316Z,31.94
2019-02-18T15:20:52.836Z,31.51
2019-02-18T15:23:26.278Z,32.59
2019-02-18T15:25:59.913Z,32.79
2019-02-18T15:28:33.232Z,32.44
2019-02-18T15:31:06.399Z,32.81
2019-02-18T15:33:40.003Z,32.37
2019-02-18T15:36:12.253Z,33.10
2019-02-18T15:38:46.583Z,32.85
2019-02-18T15:41:19.890Z,32.69
2019-02-18T15:43:53.297Z,32.61
2019-02-18T15:46:26.029Z,33.25
2019-02-18T15:49:00.678Z,33.12
2019-02-18T15:51:33.790Z,32.36
2019-02-18T15:54:06.991Z,32.68
2019-02-18T15:56:39.976Z,32.49
2019-02-18T15:59:13.172Z,32.18
2019-02-18T16:01:47.091Z,32.14
2019-02-18T16:04:21.062Z,32.11
2019-02-18T16:06:54.861Z,32.15
2019-02-18T16:09:28.207Z,32.28
2019-02-18T16:12:02.003Z,32.66
2019-02-18T16:14:35.888Z,33.15
2019-02-18T16:17:09.223Z,32.83
2019-02-18T16:19:42.352Z,33.67
2019-02-18T16:22:16.330Z,34.59
2019-02-18T16:24:49.807Z,38.80
2019-02-18T16:27:23.418Z,42.84
2019-02-18T16:29:56.594Z,43.92
2019-02-18T16:32:30.168Z,45.36
2019-02-18T16:35:03.725Z,46.46
2019-02-18T16:37:38.108Z,48.05
2019-02-18T16:40:13.197Z,48.88
2019-02-18T16:42:46.248Z,50.36
2019-02-18T16:45:18.911Z,51.33
2019-02-18T16:47:53.291Z,52.05
2019-02-18T16:50:26.895Z,52.70
2019-02-18T16:53:00.269Z,53.54
2019-02-18T16:55:33.705Z,53.61
2019-02-18T16:58:06.865Z,53.92
2019-02-18T17:00:39.922Z,54.21
2019-02-18T17:03:13.033Z,54.27
2019-02-18T17:05:46.195Z,54.10
2019-02-18T17:08:20.281Z,54.08
2019-02-18T17:10:53.387Z,54.43
2019-02-18T17:13:26.978Z,54.88
2019-02-18T17:16:00.588Z,55.23
2019-02-18T17:18:32.841Z,56.24
2019-02-18T17:21:06.847Z,56.56
2019-02-18T17:23:39.899Z,57.18
2019-02-18T17:26:12.949Z,57.30
2019-02-18T17:28:45.940Z,57.85
2019-02-18T17:31:21.829Z,57.99
2019-02-18T17:33:55.131Z,58.90
2019-02-18T17:36:28.970Z,58.25
2019-02-18T17:39:02.437Z,59.04
2019-02-18T17:41:37.822Z,59.00
2019-02-18T17:44:11.035Z,54.93
2019-02-18T17:46:44.437Z,53.16
2019-02-18T17:49:17.562Z,50.94
2019-02-18T17:51:50.729Z,51.39
2019-02-18T17:54:23.808Z,50.63
2019-02-18T17:56:57.368Z,50.05
2019-02-18T17:59:30.776Z,49.59
2019-02-18T18:02:06.248Z,49.28
2019-02-18T18:04:39.866Z,49.12
2019-02-18T18:07:12.987Z,49.39
2019-02-18T18:09:46.119Z,48.58
2019-02-18T18:12:19.558Z,48.65
2019-02-18T18:14:52.859Z,47.90
2019-02-18T18:17:26.113Z,47.96
2019-02-18T18:19:59.442Z,47.96
2019-02-18T18:22:33.208Z,48.31
2019-02-18T18:25:06.733Z,48.89
2019-02-18T18:27:40.646Z,49.41
2019-02-18T18:30:14.625Z,49.73
2019-02-18T18:32:47.737Z,51.59
2019-02-18T18:35:21.440Z,52.87
2019-02-18T18:37:55.219Z,50.32
2019-02-18T18:40:28.232Z,51.60
2019-02-18T18:43:01.724Z,53.72
2019-02-18T18:45:36.266Z,53.59
2019-02-18T18:48:10.244Z,53.69
2019-02-18T18:50:43.530Z,52.04
2019-02-18T18:53:17.175Z,50.97
2019-02-18T18:55:50.975Z,51.43
2019-02-18T18:58:24.903Z,49.41
2019-02-18T19:00:58.391Z,48.32
2019-02-18T19:03:32.752Z,47.96
2019-02-18T19:06:06.189Z,48.98
2019-02-18T19:08:39.423Z,48.61
